Time;durP1;ratioP1;P1;durP2;ratioP2;P2;SDS_P1;SDS_P2;PMS_P1;PMS_P2;Temp;Humidity;BMP_temperature;BMP_pressure;BME280_temperature;BME280_humidity;BME280_pressure;Samples;Min_cycle;Max_cycle;Signal;HPM_P1;HPM_P2
2022/05/27 00:01:10;;;;;;;13.40;8.13;;;14.60;99.90;;;;;;5094250;28;20039;-68
2022/05/27 00:03:36;;;;;;;12.35;8.50;;;14.50;99.90;;;;;;5093029;28;20165;-68
2022/05/27 00:06:01;;;;;;;14.10;9.20;;;14.40;99.90;;;;;;5093920;28;20122;-68
2022/05/27 00:08:28;;;;;;;22.45;9.48;;;14.30;99.90;;;;;;5094244;28;20450;-68
2022/05/27 00:10:55;;;;;;;20.08;10.57;;;14.20;99.90;;;;;;5092976;28;20503;-68
2022/05/27 00:13:21;;;;;;;13.77;10.73;;;14.10;99.90;;;;;;5094132;28;20023;-68
2022/05/27 00:15:47;;;;;;;14.82;10.40;;;14.10;99.90;;;;;;5094016;28;20028;-68
2022/05/27 00:18:12;;;;;;;16.85;10.75;;;14.10;99.90;;;;;;5093957;28;20035;-68
2022/05/27 00:20:37;;;;;;;17.63;11.13;;;14.10;99.90;;;;;;5093998;28;20059;-68
2022/05/27 00:23:04;;;;;;;15.93;10.45;;;14.10;99.90;;;;;;5093863;28;20019;-68
2022/05/27 00:25:29;;;;;;;17.58;11.63;;;14.00;99.90;;;;;;5093816;28;20506;-68
2022/05/27 00:27:57;;;;;;;15.85;10.75;;;14.00;99.90;;;;;;5093920;28;20074;-68
2022/05/27 00:30:23;;;;;;;17.95;10.55;;;14.00;99.90;;;;;;5075899;28;20491;-68
2022/05/27 00:32:48;;;;;;;21.90;10.98;;;13.90;99.90;;;;;;5093744;28;20559;-68
2022/05/27 00:35:14;;;;;;;18.23;11.10;;;14.00;99.90;;;;;;5093741;28;20032;-68
2022/05/27 00:37:40;;;;;;;18.58;10.27;;;13.90;99.90;;;;;;5093725;28;20110;-67
2022/05/27 00:40:06;;;;;;;18.77;10.60;;;13.80;99.90;;;;;;5092300;28;20077;-68
2022/05/27 00:42:32;;;;;;;18.00;9.50;;;13.80;99.90;;;;;;5092341;28;20470;-68
2022/05/27 00:44:58;;;;;;;17.08;10.10;;;13.80;99.90;;;;;;5093503;28;20154;-68
2022/05/27 00:47:29;;;;;;;16.33;9.45;;;13.80;99.90;;;;;;5092420;28;20478;-68
2022/05/27 00:50:00;;;;;;;14.68;9.25;;;13.70;99.90;;;;;;5092332;28;20023;-68
2022/05/27 00:52:30;;;;;;;12.48;9.50;;;13.70;99.90;;;;;;5093540;28;20031;-69
2022/05/27 00:54:56;;;;;;;16.95;10.20;;;13.70;99.90;;;;;;5093432;28;20382;-67
2022/05/27 00:57:28;;;;;;;16.58;11.02;;;13.70;99.90;;;;;;5093499;28;20024;-67
2022/05/27 01:00:01;;;;;;;16.55;10.32;;;13.70;99.90;;;;;;5093251;28;20074;-68
2022/05/27 01:02:27;;;;;;;;;;;13.70;99.90;;;;;;5093801;28;20066;-68
2022/05/27 01:04:53;;;;;;;15.95;10.98;;;13.60;99.90;;;;;;5093079;28;19923;-67
2022/05/27 01:07:18;;;;;;;18.85;12.48;;;13.70;99.90;;;;;;5093275;28;20036;-68
2022/05/27 01:09:48;;;;;;;17.90;12.52;;;13.60;99.90;;;;;;5092052;28;20103;-67
2022/05/27 01:12:43;;;;;;;19.30;13.10;;;13.60;99.90;;;;;;5093234;28;20026;-67
2022/05/27 01:15:23;;;;;;;21.40;13.93;;;13.60;99.90;;;;;;5093109;28;20051;-68
2022/05/27 01:20:18;;;;;;;23.55;15.65;;;13.60;99.90;;;;;;5093182;28;20028;-68
2022/05/27 01:21:21;;;;;;;22.75;14.98;;;13.60;99.90;;;;;;5092973;28;20539;-68
2022/05/27 01:24:16;;;;;;;20.97;15.13;;;13.60;99.90;;;;;;5093182;28;20027;-68
2022/05/27 01:27:21;;;;;;;25.98;15.27;;;13.50;99.90;;;;;;5092099;28;20398;-67
2022/05/27 01:30:26;;;;;;;23.13;16.27;;;13.60;99.90;;;;;;5092936;28;20556;-68
2022/05/27 01:33:22;;;;;;;19.77;15.52;;;13.50;99.90;;;;;;5092947;28;20033;-68
2022/05/27 01:36:09;;;;;;;23.60;16.05;;;13.50;99.90;;;;;;5091786;28;20459;-68
2022/05/27 01:39:01;;;;;;;21.27;16.15;;;13.50;99.90;;;;;;5091902;28;20077;-68
2022/05/27 01:41:40;;;;;;;27.35;18.52;;;13.50;99.90;;;;;;5093100;28;20505;-67
2022/05/27 01:44:12;;;;;;;31.75;19.70;;;13.50;99.90;;;;;;5093012;28;20139;-68
2022/05/27 01:46:43;;;;;;;34.45;20.95;;;13.40;99.90;;;;;;5092983;28;20028;-67
2022/05/27 01:49:32;;;;;;;30.58;21.45;;;13.40;99.90;;;;;;5092923;28;20501;-68
2022/05/27 01:55:05;;;;;;;31.20;21.13;;;13.40;99.90;;;;;;5111107;27;20751;-68
2022/05/27 01:57:40;;;;;;;32.17;21.05;;;13.40;99.90;;;;;;5110945;28;20459;-68
2022/05/27 02:00:18;;;;;;;29.23;21.27;;;13.40;99.90;;;;;;5109896;28;20020;-67
2022/05/27 02:02:49;;;;;;;32.20;21.73;;;13.40;99.90;;;;;;5109814;28;20027;-68
2022/05/27 02:05:20;;;;;;;32.28;20.38;;;13.40;99.90;;;;;;5109706;28;20028;-68
2022/05/27 02:08:00;;;;;;;29.60;20.67;;;13.40;99.90;;;;;;5110891;28;20051;-68
2022/05/27 02:10:48;;;;;;;35.83;19.63;;;13.40;99.90;;;;;;5110919;28;20027;-67
2022/05/27 02:13:35;;;;;;;30.70;18.65;;;13.40;99.90;;;;;;5110663;28;20103;-67
2022/05/27 02:16:03;;;;;;;25.33;16.90;;;13.40;99.90;;;;;;5110845;28;20086;-67
2022/05/27 02:18:37;;;;;;;25.77;17.88;;;13.40;99.90;;;;;;5110722;28;20401;-68
2022/05/27 02:21:10;;;;;;;27.40;17.92;;;13.40;99.90;;;;;;5110671;28;20020;-68
2022/05/27 02:23:40;;;;;;;28.38;18.80;;;13.40;99.90;;;;;;5110676;28;20027;-67
2022/05/27 02:26:12;;;;;;;28.30;18.95;;;13.40;99.90;;;;;;5110595;28;20028;-68
2022/05/27 02:28:42;;;;;;;29.52;18.40;;;13.40;99.90;;;;;;5110485;28;20031;-67
2022/05/27 02:31:14;;;;;;;30.60;19.00;;;13.40;99.90;;;;;;5110500;28;20028;-67
2022/05/27 02:36:37;;;;;;;31.92;20.50;;;13.40;99.90;;;;;;5110152;28;20028;-68
2022/05/27 02:39:05;;;;;;;35.55;24.83;;;13.50;99.90;;;;;;5110361;28;20386;-68
2022/05/27 02:41:43;;;;;;;37.45;24.08;;;13.50;99.90;;;;;;5110109;28;20062;-68
2022/05/27 02:44:46;;;;;;;35.50;23.98;;;13.50;99.90;;;;;;5109128;28;20028;-68
2022/05/27 02:47:27;;;;;;;35.55;22.67;;;13.50;99.90;;;;;;5108954;28;20056;-68
2022/05/27 02:50:32;;;;;;;34.13;23.17;;;13.50;99.90;;;;;;5110040;28;20133;-68
2022/05/27 02:53:12;;;;;;;37.80;23.70;;;13.50;99.90;;;;;;5109602;28;20051;-68
2022/05/27 02:55:57;;;;;;;31.85;22.38;;;13.50;99.90;;;;;;5108914;28;20050;-69
2022/05/27 02:58:22;;;;;;;34.25;23.88;;;13.50;99.90;;;;;;5109871;28;20474;-68
2022/05/27 03:00:48;;;;;;;39.08;26.00;;;13.40;99.90;;;;;;5109868;28;20068;-68
2022/05/27 03:03:14;;;;;;;40.13;26.52;;;13.40;99.90;;;;;;5108653;28;20024;-68
2022/05/27 03:08:38;;;;;;;43.33;28.17;;;13.40;99.90;;;;;;5111224;27;20351;-68
2022/05/27 03:11:17;;;;;;;42.70;29.33;;;13.40;99.90;;;;;;5110061;28;20374;-68
2022/05/27 03:13:55;;;;;;;46.92;31.23;;;13.40;99.90;;;;;;5111007;28;20027;-68
2022/05/27 03:16:35;;;;;;;43.55;29.40;;;13.40;99.90;;;;;;5111002;28;20406;-68
2022/05/27 03:19:27;;;;;;;40.67;27.52;;;13.40;99.90;;;;;;5110003;28;20382;-68
2022/05/27 03:22:33;;;;;;;37.70;23.77;;;13.40;99.90;;;;;;5110794;28;20428;-68
2022/05/27 03:25:21;;;;;;;29.10;18.48;;;13.30;99.90;;;;;;5110561;28;20055;-68
2022/05/27 03:27:58;;;;;;;26.52;17.90;;;13.30;99.90;;;;;;5110608;28;20024;-68
2022/05/27 03:30:31;;;;;;;18.98;14.15;;;13.20;99.90;;;;;;5110843;28;20028;-67
2022/05/27 03:33:16;;;;;;;18.77;12.98;;;13.10;99.90;;;;;;5110736;28;20028;-68
2022/05/27 03:35:50;;;;;;;17.67;12.98;;;13.10;99.90;;;;;;5110648;28;20114;-68
2022/05/27 03:38:40;;;;;;;17.40;13.43;;;13.10;99.90;;;;;;5110606;28;20027;-68
2022/05/27 03:41:13;;;;;;;18.90;13.05;;;13.20;99.90;;;;;;5109183;28;20077;-69
2022/05/27 03:43:39;;;;;;;18.73;12.70;;;13.20;99.90;;;;;;5110430;28;20024;-68
2022/05/27 03:46:05;;;;;;;15.30;10.45;;;13.10;99.90;;;;;;5109039;28;20089;-68
2022/05/27 03:48:32;;;;;;;17.02;10.68;;;13.10;99.90;;;;;;5092224;28;20119;-68
2022/05/27 03:51:09;;;;;;;13.35;10.25;;;13.10;99.90;;;;;;5110410;28;20069;-68
2022/05/27 03:54:05;;;;;;;14.90;10.57;;;13.00;99.90;;;;;;5109076;28;20485;-68
2022/05/27 03:56:20;;;;;;;13.50;10.18;;;13.00;99.90;;;;;;5110056;28;20020;-68
2022/05/27 03:58:45;;;;;;;13.65;10.20;;;13.00;99.90;;;;;;5109005;28;20035;-67
2022/05/27 04:01:11;;;;;;;12.20;9.45;;;13.00;99.90;;;;;;5110163;28;20115;-67
2022/05/27 04:03:36;;;;;;;13.63;9.40;;;13.00;99.90;;;;;;5091884;28;20023;-67
2022/05/27 04:06:02;;;;;;;16.70;9.80;;;13.00;99.90;;;;;;5109801;28;20032;-67
2022/05/27 04:08:28;;;;;;;13.10;9.20;;;12.90;99.90;;;;;;5109985;28;20020;-67
2022/05/27 04:10:53;;;;;;;14.65;10.15;;;12.90;99.90;;;;;;5108719;28;20030;-67
2022/05/27 04:13:18;;;;;;;13.18;9.10;;;12.90;99.90;;;;;;5108748;28;20171;-67
2022/05/27 04:15:44;;;;;;;14.07;8.98;;;12.90;99.90;;;;;;5108532;28;20020;-68
2022/05/27 04:18:09;;;;;;;16.58;10.02;;;12.90;99.90;;;;;;5105010;28;20062;-68
2022/05/27 04:20:35;;;;;;;15.13;9.50;;;12.90;99.90;;;;;;5078035;28;20025;-68
2022/05/27 04:23:01;;;;;;;10.38;8.52;;;12.90;99.90;;;;;;5096277;28;20035;-68
2022/05/27 04:25:26;;;;;;;17.52;9.13;;;12.80;99.90;;;;;;5094960;28;20103;-68
2022/05/27 04:27:52;;;;;;;11.23;8.57;;;12.90;99.90;;;;;;5095958;28;20386;-67
2022/05/27 04:30:17;;;;;;;11.57;8.02;;;12.90;99.90;;;;;;5094832;28;20051;-68
2022/05/27 04:32:43;;;;;;;9.10;7.60;;;12.90;99.90;;;;;;5095973;28;20020;-68
2022/05/27 04:35:10;;;;;;;13.93;7.75;;;12.90;99.90;;;;;;5094782;28;20020;-68
2022/05/27 04:37:36;;;;;;;16.25;8.20;;;12.90;99.90;;;;;;5095900;28;20081;-68
2022/05/27 04:40:04;;;;;;;13.85;7.72;;;12.90;99.90;;;;;;5094654;28;20081;-69
2022/05/27 04:42:30;;;;;;;10.15;7.13;;;12.90;99.90;;;;;;5094644;28;20024;-68
2022/05/27 04:44:56;;;;;;;12.82;7.20;;;12.90;99.90;;;;;;5095776;28;20453;-68
2022/05/27 04:47:22;;;;;;;10.55;6.90;;;12.90;99.90;;;;;;5095591;28;20108;-68
2022/05/27 04:49:50;;;;;;;12.07;6.97;;;12.90;99.90;;;;;;5095573;28;20024;-68
2022/05/27 04:52:16;;;;;;;11.70;6.82;;;12.90;99.90;;;;;;5095556;28;20386;-68
2022/05/27 04:54:42;;;;;;;11.20;6.93;;;12.90;99.90;;;;;;5095521;28;20024;-68
2022/05/27 04:57:13;;;;;;;11.35;6.15;;;12.90;99.90;;;;;;5094234;28;20028;-68
2022/05/27 04:59:40;;;;;;;11.02;5.80;;;12.90;99.90;;;;;;5095459;28;20024;-68
2022/05/27 05:02:06;;;;;;;7.15;5.95;;;13.00;99.90;;;;;;5095338;28;20028;-68
2022/05/27 05:04:32;;;;;;;10.73;6.65;;;13.00;99.90;;;;;;5095422;28;20020;-68
2022/05/27 05:07:02;;;;;;;9.80;6.15;;;13.00;99.90;;;;;;5093898;28;20118;-69
2022/05/27 05:09:28;;;;;;;8.15;6.07;;;13.00;99.90;;;;;;5095320;28;20023;-68
2022/05/27 05:11:53;;;;;;;9.25;6.80;;;13.00;99.90;;;;;;5095198;28;20028;-68
2022/05/27 05:14:19;;;;;;;11.00;5.93;;;13.10;99.90;;;;;;5095127;28;20494;-68
2022/05/27 05:16:44;;;;;;;6.93;5.60;;;13.20;99.90;;;;;;5095080;28;20024;-68
2022/05/27 05:19:10;;;;;;;11.80;5.30;;;13.30;99.90;;;;;;5093864;28;20513;-67
2022/05/27 05:21:36;;;;;;;12.77;5.60;;;13.40;99.90;;;;;;5094946;28;20032;-68
2022/05/27 05:24:03;;;;;;;11.80;6.20;;;13.40;99.90;;;;;;5095005;28;20139;-68
2022/05/27 05:26:28;;;;;;;11.63;6.35;;;13.40;99.90;;;;;;5094807;28;20024;-68
2022/05/27 05:28:54;;;;;;;8.43;5.70;;;13.40;99.90;;;;;;5093644;28;20035;-68
2022/05/27 05:31:19;;;;;;;9.80;5.90;;;13.40;99.90;;;;;;5093874;28;20020;-68
2022/05/27 05:33:45;;;;;;;10.27;6.30;;;13.40;99.90;;;;;;5093503;28;20020;-68
2022/05/27 05:36:10;;;;;;;8.50;5.28;;;13.70;99.90;;;;;;5094740;28;20020;-68
2022/05/27 05:38:37;;;;;;;11.02;6.20;;;13.60;99.90;;;;;;5093371;28;20020;-67
2022/05/27 05:41:03;;;;;;;7.10;5.80;;;13.70;99.90;;;;;;5093485;28;20360;-68
2022/05/27 05:43:29;;;;;;;9.07;5.28;;;14.20;99.90;;;;;;5093419;28;20016;-67
2022/05/27 05:45:54;;;;;;;9.13;5.15;;;14.20;99.90;;;;;;5094462;28;20024;-67
2022/05/27 05:48:19;;;;;;;8.68;5.63;;;14.20;99.90;;;;;;5093109;28;20117;-67
2022/05/27 05:50:45;;;;;;;7.78;5.22;;;14.20;99.90;;;;;;5094412;28;20028;-67
2022/05/27 05:53:10;;;;;;;7.93;5.20;;;14.50;99.90;;;;;;5093285;28;20024;-67
2022/05/27 05:55:37;;;;;;;7.32;5.50;;;14.50;99.90;;;;;;5094404;28;20031;-67
2022/05/27 05:58:03;;;;;;;9.45;5.20;;;14.80;99.90;;;;;;5094381;28;20024;-67
2022/05/27 06:00:29;;;;;;;7.43;4.63;;;15.50;99.90;;;;;;5076178;28;20025;-68
2022/05/27 06:02:55;;;;;;;9.50;5.35;;;15.80;99.90;;;;;;5092915;28;20393;-68
2022/05/27 06:05:22;;;;;;;7.18;5.10;;;15.30;99.90;;;;;;5094155;28;20405;-68
2022/05/27 06:07:48;;;;;;;8.50;5.47;;;14.90;99.90;;;;;;5093708;28;20497;-68
2022/05/27 06:10:16;;;;;;;8.15;5.95;;;14.70;99.90;;;;;;5092959;28;20032;-68
2022/05/27 06:12:42;;;;;;;7.35;5.38;;;14.70;99.90;;;;;;5076103;28;20035;-68
2022/05/27 06:15:10;;;;;;;7.97;5.60;;;14.80;99.90;;;;;;5092835;28;20028;-68
2022/05/27 06:17:36;;;;;;;10.52;5.30;;;15.40;99.90;;;;;;5093988;28;20350;-68
2022/05/27 06:20:03;;;;;;;8.13;5.75;;;15.60;99.90;;;;;;5093947;28;20030;-69
2022/05/27 06:22:29;;;;;;;7.10;4.90;;;15.80;99.90;;;;;;5093940;28;20386;-68
2022/05/27 06:24:54;;;;;;;8.05;4.88;;;16.30;99.90;;;;;;5092551;28;20032;-69
2022/05/27 06:27:20;;;;;;;8.77;4.57;;;16.70;99.90;;;;;;5093693;28;20108;-68
2022/05/27 06:35:16;;;;;;;8.20;4.82;;;17.30;99.90;;;;;;5093488;28;20052;-68
2022/05/27 06:37:41;;;;;;;6.93;5.30;;;17.00;99.90;;;;;;5092420;28;20071;-68
2022/05/27 06:40:08;;;;;;;6.47;4.35;;;16.90;99.90;;;;;;5092763;28;20032;-68
2022/05/27 06:42:33;;;;;;;8.98;5.30;;;16.70;99.90;;;;;;5084999;28;20020;-69
2022/05/27 06:44:59;;;;;;;6.00;4.88;;;16.30;99.90;;;;;;5092651;28;20036;-68
2022/05/27 06:47:25;;;;;;;8.90;4.53;;;16.70;99.90;;;;;;5093356;28;20028;-68
2022/05/27 06:49:51;;;;;;;11.07;4.93;;;16.80;99.90;;;;;;5093144;28;20023;-68
2022/05/27 06:52:16;;;;;;;8.35;4.72;;;17.20;99.90;;;;;;5091993;28;20024;-69
2022/05/27 06:54:42;;;;;;;7.25;4.18;;;16.90;99.90;;;;;;5071749;28;20029;-69
2022/05/27 06:57:09;;;;;;;8.40;4.00;;;17.30;99.90;;;;;;5078486;28;20104;-69
2022/05/27 06:59:34;;;;;;;11.00;4.07;;;18.30;99.90;;;;;;5093262;28;20071;-70
2022/05/27 07:02:00;;;;;;;6.85;3.50;;;18.60;99.90;;;;;;5091006;28;20020;-69
2022/05/27 07:04:26;;;;;;;8.15;4.05;;;18.30;99.90;;;;;;5091446;28;20103;-70
2022/05/27 07:06:52;;;;;;;10.15;4.10;;;18.80;99.90;;;;;;5074882;28;20135;-70
2022/05/27 07:09:21;;;;;;;8.27;3.95;;;18.50;99.90;;;;;;5093185;28;20031;-69
2022/05/27 07:11:48;;;;;;;6.13;3.90;;;17.70;99.90;;;;;;5092700;28;20020;-69
2022/05/27 07:14:15;;;;;;;10.00;3.50;;;17.90;99.90;;;;;;5092703;28;20103;-70
2022/05/27 07:16:42;;;;;;;7.65;3.30;;;19.40;99.90;;;;;;5092255;28;20024;-70
2022/05/27 07:19:07;;;;;;;9.73;3.10;;;19.90;99.90;;;;;;5092499;28;20028;-69
2022/05/27 07:21:43;;;;;;;8.77;3.28;;;18.70;99.90;;;;;;5092697;28;20455;-69
2022/05/27 07:24:11;;;;;;;11.23;3.33;;;17.60;99.90;;;;;;5092234;28;20466;-69
2022/05/27 07:26:38;;;;;;;11.65;3.80;;;17.50;99.90;;;;;;5092542;28;20028;-69
2022/05/27 07:29:05;;;;;;;8.95;3.58;;;17.70;99.90;;;;;;5092777;28;20032;-69
2022/05/27 07:31:31;;;;;;;8.30;3.55;;;17.60;99.90;;;;;;5091433;28;20363;-69
2022/05/27 07:33:57;;;;;;;11.32;4.07;;;18.40;99.90;;;;;;5092672;28;20389;-69
2022/05/27 07:36:23;;;;;;;7.90;3.13;;;18.40;99.90;;;;;;5091469;28;20440;-69
2022/05/27 07:38:51;;;;;;;6.13;2.90;;;19.00;99.90;;;;;;5074859;28;20023;-70
2022/05/27 07:41:17;;;;;;;9.57;3.00;;;18.50;99.90;;;;;;5091542;28;20039;-69
2022/05/27 07:43:44;;;;;;;7.25;2.97;;;17.70;99.90;;;;;;5091499;28;20025;-71
2022/05/27 07:46:10;;;;;;;7.65;3.15;;;17.60;99.90;;;;;;5092586;28;20016;-69
2022/05/27 07:48:35;;;;;;;8.35;3.05;;;16.80;99.90;;;;;;5092670;28;20024;-69
2022/05/27 07:51:01;;;;;;;9.95;3.67;;;16.70;99.90;;;;;;5092892;28;20024;-69
2022/05/27 07:53:27;;;;;;;8.50;3.22;;;16.50;99.90;;;;;;5092252;28;20115;-69
2022/05/27 07:55:52;;;;;;;10.52;3.63;;;16.40;99.90;;;;;;5096405;28;20065;-69
2022/05/27 07:58:18;;;;;;;11.52;3.95;;;16.40;99.90;;;;;;5074770;28;20029;-69
2022/05/27 08:00:43;;;;;;;11.57;3.83;;;16.30;99.90;;;;;;5082839;28;20028;-69
2022/05/27 08:03:09;;;;;;;9.82;3.63;;;16.80;99.90;;;;;;5095993;28;20039;-69
2022/05/27 08:05:35;;;;;;;10.65;3.75;;;17.10;99.90;;;;;;5096074;28;20073;-70
2022/05/27 08:08:02;;;;;;;5.72;3.00;;;17.30;99.90;;;;;;5094744;28;20036;-69
2022/05/27 08:10:31;;;;;;;7.38;3.22;;;17.10;99.90;;;;;;5094858;28;20036;-70
2022/05/27 08:12:58;;;;;;;12.43;3.20;;;17.30;99.90;;;;;;5095770;28;20469;-69
2022/05/27 08:15:24;;;;;;;11.50;3.55;;;16.40;99.90;;;;;;5092728;28;20016;-70
2022/05/27 08:17:49;;;;;;;10.05;3.42;;;16.10;99.90;;;;;;5094276;28;20073;-69
2022/05/27 08:20:18;;;;;;;9.82;3.55;;;16.00;99.90;;;;;;5096043;28;20474;-69
2022/05/27 08:22:46;;;;;;;10.88;3.60;;;16.30;99.90;;;;;;5094556;28;20032;-69
2022/05/27 08:25:12;;;;;;;9.02;3.78;;;16.60;99.90;;;;;;5095655;28;20031;-70
2022/05/27 08:27:38;;;;;;;9.07;3.33;;;16.70;99.90;;;;;;5094661;28;20081;-70
2022/05/27 08:30:05;;;;;;;10.15;3.17;;;17.00;99.90;;;;;;5094467;28;20439;-69
2022/05/27 08:32:31;;;;;;;9.43;3.22;;;18.00;99.90;;;;;;5096054;28;20024;-69
2022/05/27 08:38:15;;;;;;;14.02;3.47;;;19.00;99.90;;;;;;5094656;28;20549;-70
2022/05/27 08:41:07;;;;;;;12.10;3.17;;;18.90;99.90;;;;;;5094418;28;20020;-69
2022/05/27 08:43:59;;;;;;;13.60;3.00;;;18.50;99.90;;;;;;5095802;28;20032;-69
2022/05/27 08:46:36;;;;;;;11.65;3.22;;;19.20;99.90;;;;;;5093144;28;20040;-70
2022/05/27 08:49:08;;;;;;;9.35;2.97;;;19.30;99.90;;;;;;5095255;28;20035;-69
2022/05/27 08:51:41;;;;;;;8.98;2.90;;;19.00;99.90;;;;;;5095123;28;20012;-69
2022/05/27 08:54:09;;;;;;;;;;;19.70;99.90;;;;;;5095339;28;20417;-69
2022/05/27 08:59:37;;;;;;;12.90;3.20;;;20.40;99.90;;;;;;5095309;28;20036;-69
2022/05/27 09:02:28;;;;;;;9.60;2.88;;;20.10;99.90;;;;;;5094637;28;20077;-69
2022/05/27 09:05:05;;;;;;;8.50;3.05;;;18.90;99.90;;;;;;5082827;28;20028;-69
2022/05/27 09:07:46;;;;;;;12.60;3.38;;;17.90;99.90;;;;;;5094418;28;20073;-69
2022/05/27 09:10:19;;;;;;;9.85;3.13;;;17.50;99.90;;;;;;5094101;28;20093;-69
2022/05/27 09:15:56;;;;;;;11.93;3.28;;;17.10;99.90;;;;;;5110861;27;20735;-68
2022/05/27 09:18:32;;;;;;;10.43;3.08;;;16.80;99.90;;;;;;5108743;28;20016;-68
2022/05/27 09:21:25;;;;;;;9.82;3.25;;;18.00;99.90;;;;;;5110886;28;20024;-69
2022/05/27 09:24:30;;;;;;;9.40;3.00;;;19.50;99.90;;;;;;5110365;28;20032;-68
2022/05/27 09:27:07;;;;;;;9.00;2.65;;;20.50;99.90;;;;;;5110731;28;20028;-68
2022/05/27 09:30:03;;;;;;;11.88;3.30;;;20.40;99.90;;;;;;5110288;28;20042;-68
2022/05/27 09:32:44;;;;;;;11.43;3.65;;;20.60;99.90;;;;;;5109711;28;20069;-68
2022/05/27 09:35:18;;;;;;;9.32;3.25;;;20.40;99.90;;;;;;5089148;28;20047;-68
2022/05/27 09:37:49;;;;;;;11.73;3.15;;;19.20;99.90;;;;;;5106306;28;20035;-68
2022/05/27 09:40:22;;;;;;;13.23;3.45;;;19.30;99.90;;;;;;5110465;28;20350;-68
2022/05/27 09:42:56;;;;;;;8.45;3.00;;;19.30;99.90;;;;;;5110382;28;20465;-68
2022/05/27 09:45:21;;;;;;;10.18;3.25;;;18.90;99.90;;;;;;5109191;28;20042;-68
2022/05/27 09:47:47;;;;;;;11.52;3.30;;;19.20;99.90;;;;;;5110017;28;20024;-68
2022/05/27 09:50:36;;;;;;;10.10;3.42;;;19.20;99.90;;;;;;5090137;28;20069;-68
2022/05/27 09:53:04;;;;;;;9.35;3.40;;;18.90;99.90;;;;;;5108730;28;20035;-68
2022/05/27 09:55:55;;;;;;;11.00;3.40;;;19.30;99.90;;;;;;5110380;28;20066;-68
2022/05/27 09:58:28;;;;;;;6.90;2.67;;;20.00;99.90;;;;;;5109318;28;20052;-68
2022/05/27 10:00:54;;;;;;;7.43;2.88;;;19.60;99.90;;;;;;5110366;28;20023;-68
2022/05/27 10:03:24;;;;;;;8.73;3.45;;;20.30;99.90;;;;;;5109330;28;20024;-68
2022/05/27 10:05:54;;;;;;;11.25;3.13;;;21.20;99.80;;;;;;5110088;28;20081;-68
2022/05/27 10:08:31;;;;;;;8.73;2.72;;;21.70;99.00;;;;;;5109788;28;20031;-68
2022/05/27 10:11:19;;;;;;;12.52;3.10;;;21.80;97.90;;;;;;5091499;28;20034;-69
2022/05/27 10:13:47;;;;;;;12.63;3.13;;;20.10;98.80;;;;;;5108169;28;20044;-68
2022/05/27 10:16:23;;;;;;;8.00;2.67;;;19.70;99.60;;;;;;5108618;28;20065;-68
2022/05/27 10:19:05;;;;;;;9.63;3.30;;;19.60;99.90;;;;;;5108548;28;20016;-68
2022/05/27 10:21:31;;;;;;;10.57;3.25;;;19.50;99.90;;;;;;5108693;28;20493;-69
2022/05/27 10:24:18;;;;;;;9.18;3.03;;;20.10;99.90;;;;;;5109678;28;20023;-68
2022/05/27 10:26:44;;;;;;;12.38;3.00;;;20.00;99.30;;;;;;5096121;28;20574;-68
2022/05/27 10:29:15;;;;;;;10.32;3.13;;;20.70;97.00;;;;;;5096225;28;20020;-68
2022/05/27 10:31:51;;;;;;;12.80;3.50;;;20.90;95.90;;;;;;5094741;28;20458;-68
2022/05/27 10:34:40;;;;;;;8.50;2.85;;;20.90;96.80;;;;;;5095073;28;20458;-69
2022/05/27 10:37:22;;;;;;;11.60;2.83;;;20.50;95.60;;;;;;5095967;28;20031;-68
2022/05/27 10:40:05;;;;;;;10.52;3.25;;;20.30;96.20;;;;;;5094541;28;20530;-69
2022/05/27 10:42:49;;;;;;;11.57;3.20;;;20.40;97.30;;;;;;5094116;28;20020;-68
2022/05/27 10:45:19;;;;;;;7.70;2.65;;;20.90;95.90;;;;;;5092645;28;20150;-68
2022/05/27 10:48:18;;;;;;;10.07;3.25;;;20.80;96.40;;;;;;5095600;28;20078;-68
2022/05/27 10:51:02;;;;;;;10.85;3.15;;;20.90;95.60;;;;;;5096724;28;20474;-69
2022/05/27 10:53:42;;;;;;;9.90;2.60;;;20.10;96.20;;;;;;5095323;28;20465;-68
2022/05/27 10:56:22;;;;;;;8.57;3.30;;;19.90;98.80;;;;;;5095382;28;20099;-68
2022/05/27 11:02:37;;;;;;;14.45;3.58;;;20.00;96.90;;;;;;5095287;28;20024;-68
2022/05/27 11:05:30;;;;;;;11.55;3.30;;;18.80;98.70;;;;;;5095435;28;20385;-69
2022/05/27 11:08:25;;;;;;;9.98;2.83;;;18.60;99.20;;;;;;5094089;28;20427;-68
2022/05/27 11:17:02;;;;;;;8.95;2.95;;;19.00;99.90;;;;;;5110719;28;20038;-69
2022/05/27 11:20:07;;;;;;;9.45;2.60;;;19.50;98.90;;;;;;5110929;28;20114;-69
2022/05/27 11:22:42;;;;;;;10.50;3.03;;;19.60;96.90;;;;;;5109548;28;20047;-70
2022/05/27 11:25:32;;;;;;;12.45;3.15;;;19.70;97.20;;;;;;5093474;28;20020;-69
2022/05/27 11:28:26;;;;;;;9.05;2.78;;;19.10;97.40;;;;;;5110867;28;20016;-70
2022/05/27 11:31:31;;;;;;;9.57;2.92;;;18.80;98.80;;;;;;5109604;28;20523;-69
2022/05/27 11:34:30;;;;;;;8.18;3.13;;;19.40;95.50;;;;;;5110602;28;20028;-69
2022/05/27 11:37:23;;;;;;;10.30;3.30;;;19.60;96.10;;;;;;5092318;28;20027;-69
2022/05/27 11:40:01;;;;;;;6.40;2.50;;;19.80;95.60;;;;;;5109282;28;20115;-69
2022/05/27 11:42:51;;;;;;;9.30;2.88;;;19.80;93.50;;;;;;5110608;28;20390;-69
2022/05/27 11:45:23;;;;;;;10.30;2.75;;;20.10;94.50;;;;;;5110538;28;20058;-69
2022/05/27 11:47:59;;;;;;;10.73;3.25;;;20.00;93.70;;;;;;5110472;28;20028;-69
2022/05/27 11:53:26;;;;;;;10.65;2.72;;;19.50;94.60;;;;;;5090776;28;20352;-69
2022/05/27 11:56:15;;;;;;;10.93;3.28;;;20.80;93.60;;;;;;5090585;28;20020;-69
2022/05/27 11:59:04;;;;;;;13.52;3.67;;;20.60;93.50;;;;;;5089126;28;20020;-70
2022/05/27 12:04:35;;;;;;;11.02;3.70;;;20.20;93.70;;;;;;5111021;27;20295;-69
2022/05/27 12:07:12;;;;;;;11.07;3.03;;;19.60;94.40;;;;;;5109475;28;20042;-69
2022/05/27 12:09:48;;;;;;;9.07;2.88;;;19.80;94.30;;;;;;5109552;28;20111;-70
2022/05/27 12:12:24;;;;;;;9.20;2.58;;;20.10;95.10;;;;;;5109579;28;20090;-70
2022/05/27 12:14:58;;;;;;;7.82;2.47;;;20.30;94.10;;;;;;5109663;28;20031;-69
2022/05/27 12:17:34;;;;;;;8.77;2.95;;;19.90;93.10;;;;;;5110834;28;20077;-69
2022/05/27 12:20:00;;;;;;;8.73;2.72;;;19.90;92.50;;;;;;5110709;28;20054;-70
2022/05/27 12:22:32;;;;;;;9.52;2.90;;;20.10;93.20;;;;;;5109504;28;20042;-71
2022/05/27 12:25:04;;;;;;;9.43;2.65;;;20.00;92.30;;;;;;5109525;28;20539;-70
2022/05/27 12:27:31;;;;;;;9.98;2.88;;;20.10;92.00;;;;;;5092885;28;20019;-69
2022/05/27 12:29:58;;;;;;;7.60;2.58;;;20.20;92.20;;;;;;5110565;28;20013;-69
2022/05/27 12:32:26;;;;;;;13.50;2.90;;;19.90;92.30;;;;;;5109185;28;20110;-70
2022/05/27 12:35:12;;;;;;;11.10;2.85;;;20.10;91.00;;;;;;5092107;28;20059;-70
2022/05/27 12:37:49;;;;;;;12.45;3.10;;;19.90;89.60;;;;;;5110301;28;20142;-70
2022/05/27 12:40:32;;;;;;;10.80;3.20;;;19.90;91.30;;;;;;5110341;28;20538;-69
2022/05/27 12:43:00;;;;;;;;;;;20.30;91.50;;;;;;5108809;28;20502;-69
2022/05/27 12:45:47;;;;;;;10.05;3.38;;;20.30;89.00;;;;;;5110219;28;20381;-70
2022/05/27 12:48:40;;;;;;;10.73;2.63;;;20.20;89.90;;;;;;5075433;28;20028;-70
2022/05/27 12:51:27;;;;;;;10.43;2.90;;;19.90;90.20;;;;;;5109742;28;20019;-69
2022/05/27 12:53:55;;;;;;;7.18;2.67;;;19.40;86.00;;;;;;5109855;28;20089;-71
2022/05/27 13:02:26;;;;;;;10.65;3.10;;;20.00;89.70;;;;;;5110199;27;20897;-69
2022/05/27 13:04:54;;;;;;;7.50;3.03;;;19.90;86.90;;;;;;5094132;28;20039;-71
2022/05/27 13:07:39;;;;;;;7.85;2.42;;;19.60;83.20;;;;;;5089087;28;20498;-69
2022/05/27 13:13:02;;;;;;;11.88;2.60;;;20.10;88.10;;;;;;5090554;28;20353;-70
2022/05/27 13:15:34;;;;;;;9.15;2.75;;;20.00;81.20;;;;;;5089220;28;20540;-70
2022/05/27 13:18:35;;;;;;;7.80;2.38;;;19.60;81.40;;;;;;5089376;28;20074;-70
2022/05/27 13:21:33;;;;;;;11.27;3.38;;;19.30;81.70;;;;;;5090569;28;20020;-70
2022/05/27 13:24:02;;;;;;;10.95;2.78;;;20.00;82.90;;;;;;5089264;28;20081;-70
2022/05/27 13:26:51;;;;;;;8.80;2.92;;;19.90;80.00;;;;;;5089327;28;20021;-70
2022/05/27 13:29:39;;;;;;;10.27;2.85;;;19.90;78.70;;;;;;5090428;28;20070;-70
2022/05/27 13:32:15;;;;;;;12.63;3.08;;;19.90;77.50;;;;;;5089797;28;20665;-68
2022/05/27 13:35:16;;;;;;;9.13;2.63;;;19.60;75.00;;;;;;5090153;28;20070;-69
2022/05/27 13:37:54;;;;;;;10.38;2.38;;;19.80;79.80;;;;;;5088876;28;20020;-68
2022/05/27 13:40:30;;;;;;;11.73;2.95;;;20.10;76.60;;;;;;5088903;28;20490;-68
2022/05/27 13:43:01;;;;;;;10.43;2.67;;;19.90;75.50;;;;;;5089886;28;20538;-68
2022/05/27 13:45:32;;;;;;;11.20;2.30;;;19.70;75.80;;;;;;5090151;28;20030;-68
2022/05/27 13:48:21;;;;;;;8.00;2.47;;;19.50;78.40;;;;;;5089950;28;20024;-69
2022/05/27 13:50:47;;;;;;;11.90;2.80;;;19.70;78.50;;;;;;5089845;28;20032;-69
2022/05/27 13:53:29;;;;;;;8.65;2.47;;;19.20;81.70;;;;;;5090023;28;20028;-69
2022/05/27 13:56:16;;;;;;;10.27;2.78;;;19.20;82.20;;;;;;5089910;28;20012;-69
2022/05/27 13:58:53;;;;;;;13.45;2.67;;;19.00;80.10;;;;;;5089682;28;20114;-69